Kirkby Stephen, United Kingdom
Current Conditions -  °F | °C
As of 12:50 PM on Thursday 30 Oct 2014 (Local Time) from EGXE Reporting Station
Haze Haze  
Wind Chill: 57°   Ceiling: 2000
Heat Index: 57°   Visibility: 2.1mi
Dew Point: 55°   Wind: 7mph
Humidity: 94%   Direction: 150°SSE
Pressure: 29.94"   Gusts: NA
Location:  54.47°N, 2.35°W
Report Text: EGXE 301250Z 15006KT 3500 BR SCT003 BKN020 14/13 Q1014 YLO2 BECMG 5000 BKN008 GRN
Loading
Personal Weather Stations






























Interactive Weather Map
Tropical Storm Tracking
New forecast layout! Learn more

10-Day Weather Forecast

Advertisements
Track Severe Weather on mobile